sensor_id;sensor_type;location;lat;lon;timestamp;P1;durP1;ratioP1;P2;durP2;ratioP2
21266;SDS011;10791;53.108;18.326;2022-08-21T00:02:23;14.90;;;8.85;;
21266;SDS011;10791;53.108;18.326;2022-08-21T00:07:29;15.55;;;9.30;;
21266;SDS011;10791;53.108;18.326;2022-08-21T00:12:32;13.02;;;8.45;;
21266;SDS011;10791;53.108;18.326;2022-08-21T00:17:35;14.55;;;9.10;;
21266;SDS011;10791;53.108;18.326;2022-08-21T00:22:39;14.45;;;8.88;;
21266;SDS011;10791;53.108;18.326;2022-08-21T00:27:42;13.63;;;8.65;;
21266;SDS011;10791;53.108;18.326;2022-08-21T00:32:46;13.98;;;8.60;;
21266;SDS011;10791;53.108;18.326;2022-08-21T00:37:49;14.63;;;9.38;;
21266;SDS011;10791;53.108;18.326;2022-08-21T00:42:53;11.77;;;8.85;;
21266;SDS011;10791;53.108;18.326;2022-08-21T00:47:56;13.13;;;8.70;;
21266;SDS011;10791;53.108;18.326;2022-08-21T00:53:00;16.33;;;8.57;;
21266;SDS011;10791;53.108;18.326;2022-08-21T00:58:06;14.25;;;9.75;;
21266;SDS011;10791;53.108;18.326;2022-08-21T01:03:12;15.93;;;9.55;;
21266;SDS011;10791;53.108;18.326;2022-08-21T01:08:24;13.00;;;9.95;;
21266;SDS011;10791;53.108;18.326;2022-08-21T01:13:40;16.35;;;9.98;;
21266;SDS011;10791;53.108;18.326;2022-08-21T01:19:00;15.73;;;9.75;;
21266;SDS011;10791;53.108;18.326;2022-08-21T01:24:06;13.93;;;10.00;;
21266;SDS011;10791;53.108;18.326;2022-08-21T01:34:31;13.38;;;9.20;;
21266;SDS011;10791;53.108;18.326;2022-08-21T01:39:57;13.15;;;8.98;;
21266;SDS011;10791;53.108;18.326;2022-08-21T02:11:34;14.65;;;9.55;;
21266;SDS011;10791;53.108;18.326;2022-08-21T02:17:42;13.70;;;9.35;;
21266;SDS011;10791;53.108;18.326;2022-08-21T02:42:45;14.40;;;9.70;;
21266;SDS011;10791;53.108;18.326;2022-08-21T03:41:53;10.82;;;8.77;;
21266;SDS011;10791;53.108;18.326;2022-08-21T04:06:27;12.15;;;9.80;;
21266;SDS011;10791;53.108;18.326;2022-08-21T04:11:38;12.48;;;10.05;;
21266;SDS011;10791;53.108;18.326;2022-08-21T04:16:41;15.73;;;10.77;;
21266;SDS011;10791;53.108;18.326;2022-08-21T04:21:45;16.88;;;11.80;;
21266;SDS011;10791;53.108;18.326;2022-08-21T04:26:50;17.08;;;13.63;;
21266;SDS011;10791;53.108;18.326;2022-08-21T04:31:52;21.88;;;16.40;;
21266;SDS011;10791;53.108;18.326;2022-08-21T04:36:56;22.40;;;16.05;;
21266;SDS011;10791;53.108;18.326;2022-08-21T04:41:59;27.13;;;17.95;;
21266;SDS011;10791;53.108;18.326;2022-08-21T04:47:02;23.95;;;18.67;;
21266;SDS011;10791;53.108;18.326;2022-08-21T04:52:05;26.40;;;19.95;;
21266;SDS011;10791;53.108;18.326;2022-08-21T04:57:08;24.88;;;19.92;;
21266;SDS011;10791;53.108;18.326;2022-08-21T05:02:13;32.67;;;19.95;;
21266;SDS011;10791;53.108;18.326;2022-08-21T05:07:18;24.88;;;19.23;;
21266;SDS011;10791;53.108;18.326;2022-08-21T05:12:43;25.77;;;18.30;;
21266;SDS011;10791;53.108;18.326;2022-08-21T05:17:47;22.60;;;17.95;;
21266;SDS011;10791;53.108;18.326;2022-08-21T05:23:12;27.73;;;19.10;;
21266;SDS011;10791;53.108;18.326;2022-08-21T05:28:16;25.60;;;17.83;;
21266;SDS011;10791;53.108;18.326;2022-08-21T05:33:21;24.30;;;17.40;;
21266;SDS011;10791;53.108;18.326;2022-08-21T05:38:25;22.27;;;18.25;;
21266;SDS011;10791;53.108;18.326;2022-08-21T05:43:30;23.38;;;17.95;;
21266;SDS011;10791;53.108;18.326;2022-08-21T05:48:38;20.55;;;17.05;;
21266;SDS011;10791;53.108;18.326;2022-08-21T05:53:42;27.23;;;18.35;;
21266;SDS011;10791;53.108;18.326;2022-08-21T05:58:46;24.52;;;17.77;;
21266;SDS011;10791;53.108;18.326;2022-08-21T06:03:50;31.65;;;17.42;;
21266;SDS011;10791;53.108;18.326;2022-08-21T06:08:57;27.30;;;20.00;;
21266;SDS011;10791;53.108;18.326;2022-08-21T06:14:01;33.33;;;21.27;;
21266;SDS011;10791;53.108;18.326;2022-08-21T06:19:04;34.10;;;23.15;;
21266;SDS011;10791;53.108;18.326;2022-08-21T06:24:07;39.25;;;25.33;;
21266;SDS011;10791;53.108;18.326;2022-08-21T06:29:12;36.97;;;26.00;;
21266;SDS011;10791;53.108;18.326;2022-08-21T06:34:18;37.47;;;28.25;;
21266;SDS011;10791;53.108;18.326;2022-08-21T06:39:22;36.33;;;26.40;;
21266;SDS011;10791;53.108;18.326;2022-08-21T06:44:31;39.97;;;29.08;;
21266;SDS011;10791;53.108;18.326;2022-08-21T06:49:35;37.35;;;26.00;;
21266;SDS011;10791;53.108;18.326;2022-08-21T06:54:39;36.35;;;26.55;;
21266;SDS011;10791;53.108;18.326;2022-08-21T06:59:42;30.48;;;23.00;;
21266;SDS011;10791;53.108;18.326;2022-08-21T07:04:46;31.02;;;23.00;;
21266;SDS011;10791;53.108;18.326;2022-08-21T07:09:49;25.77;;;19.92;;
21266;SDS011;10791;53.108;18.326;2022-08-21T07:14:52;26.08;;;20.02;;
21266;SDS011;10791;53.108;18.326;2022-08-21T07:19:55;24.17;;;18.60;;
21266;SDS011;10791;53.108;18.326;2022-08-21T07:25:00;29.83;;;18.38;;
21266;SDS011;10791;53.108;18.326;2022-08-21T07:30:04;20.88;;;16.42;;
21266;SDS011;10791;53.108;18.326;2022-08-21T07:35:08;22.40;;;16.38;;
21266;SDS011;10791;53.108;18.326;2022-08-21T07:40:12;20.67;;;16.23;;
21266;SDS011;10791;53.108;18.326;2022-08-21T07:45:16;24.73;;;17.67;;
21266;SDS011;10791;53.108;18.326;2022-08-21T07:50:23;24.58;;;17.58;;
21266;SDS011;10791;53.108;18.326;2022-08-21T07:55:27;23.17;;;18.48;;
21266;SDS011;10791;53.108;18.326;2022-08-21T08:00:30;25.13;;;17.08;;
21266;SDS011;10791;53.108;18.326;2022-08-21T08:05:34;24.80;;;17.05;;
21266;SDS011;10791;53.108;18.326;2022-08-21T08:10:39;19.27;;;15.50;;
21266;SDS011;10791;53.108;18.326;2022-08-21T08:15:45;19.98;;;15.88;;
21266;SDS011;10791;53.108;18.326;2022-08-21T08:20:48;21.13;;;16.63;;
21266;SDS011;10791;53.108;18.326;2022-08-21T08:25:51;19.88;;;16.85;;
21266;SDS011;10791;53.108;18.326;2022-08-21T08:30:54;20.23;;;15.70;;
21266;SDS011;10791;53.108;18.326;2022-08-21T08:35:58;16.23;;;14.50;;
21266;SDS011;10791;53.108;18.326;2022-08-21T08:46:19;22.23;;;15.77;;
21266;SDS011;10791;53.108;18.326;2022-08-21T08:51:39;20.92;;;17.33;;
21266;SDS011;10791;53.108;18.326;2022-08-21T08:56:53;23.60;;;18.10;;
21266;SDS011;10791;53.108;18.326;2022-08-21T09:01:58;27.00;;;18.08;;
21266;SDS011;10791;53.108;18.326;2022-08-21T09:12:33;21.05;;;14.55;;
21266;SDS011;10791;53.108;18.326;2022-08-21T09:28:17;20.25;;;14.85;;
21266;SDS011;10791;53.108;18.326;2022-08-21T09:33:22;17.33;;;12.27;;
21266;SDS011;10791;53.108;18.326;2022-08-21T09:38:32;16.77;;;13.25;;
21266;SDS011;10791;53.108;18.326;2022-08-21T09:43:37;18.40;;;15.50;;
21266;SDS011;10791;53.108;18.326;2022-08-21T09:48:50;15.20;;;13.40;;
21266;SDS011;10791;53.108;18.326;2022-08-21T09:54:09;19.45;;;14.60;;
21266;SDS011;10791;53.108;18.326;2022-08-21T09:59:24;15.80;;;13.25;;
21266;SDS011;10791;53.108;18.326;2022-08-21T10:04:38;16.25;;;13.27;;
21266;SDS011;10791;53.108;18.326;2022-08-21T10:09:41;15.48;;;13.63;;
21266;SDS011;10791;53.108;18.326;2022-08-21T10:20:20;10.30;;;9.02;;
21266;SDS011;10791;53.108;18.326;2022-08-21T10:25:38;9.38;;;8.48;;
21266;SDS011;10791;53.108;18.326;2022-08-21T10:36:35;9.77;;;8.52;;
21266;SDS011;10791;53.108;18.326;2022-08-21T10:47:31;8.88;;;7.60;;
21266;SDS011;10791;53.108;18.326;2022-08-21T10:58:05;9.57;;;6.57;;
21266;SDS011;10791;53.108;18.326;2022-08-21T11:08:33;7.38;;;6.68;;
21266;SDS011;10791;53.108;18.326;2022-08-21T11:13:55;9.70;;;7.20;;
21266;SDS011;10791;53.108;18.326;2022-08-21T11:19:36;7.68;;;6.88;;
21266;SDS011;10791;53.108;18.326;2022-08-21T11:24:57;9.18;;;6.47;;
21266;SDS011;10791;53.108;18.326;2022-08-21T11:30:06;8.57;;;6.68;;
21266;SDS011;10791;53.108;18.326;2022-08-21T11:35:14;6.90;;;6.20;;
21266;SDS011;10791;53.108;18.326;2022-08-21T11:46:11;7.10;;;5.72;;
21266;SDS011;10791;53.108;18.326;2022-08-21T11:51:42;9.60;;;5.65;;
21266;SDS011;10791;53.108;18.326;2022-08-21T11:56:47;6.10;;;5.22;;
21266;SDS011;10791;53.108;18.326;2022-08-21T12:01:55;8.52;;;5.40;;
21266;SDS011;10791;53.108;18.326;2022-08-21T12:07:29;6.82;;;4.50;;
21266;SDS011;10791;53.108;18.326;2022-08-21T12:12:36;7.38;;;4.22;;
21266;SDS011;10791;53.108;18.326;2022-08-21T12:17:50;5.93;;;4.60;;
21266;SDS011;10791;53.108;18.326;2022-08-21T12:28:15;6.13;;;3.45;;
21266;SDS011;10791;53.108;18.326;2022-08-21T12:33:35;5.15;;;3.58;;
21266;SDS011;10791;53.108;18.326;2022-08-21T12:38:49;5.55;;;3.20;;
21266;SDS011;10791;53.108;18.326;2022-08-21T12:44:00;4.88;;;3.25;;
21266;SDS011;10791;53.108;18.326;2022-08-21T12:49:15;5.78;;;3.28;;
21266;SDS011;10791;53.108;18.326;2022-08-21T12:54:37;4.50;;;3.42;;
21266;SDS011;10791;53.108;18.326;2022-08-21T12:59:45;3.90;;;3.20;;
21266;SDS011;10791;53.108;18.326;2022-08-21T13:04:48;6.47;;;3.20;;
21266;SDS011;10791;53.108;18.326;2022-08-21T13:09:53;4.43;;;2.60;;
21266;SDS011;10791;53.108;18.326;2022-08-21T13:15:02;3.20;;;2.67;;
21266;SDS011;10791;53.108;18.326;2022-08-21T13:20:18;3.70;;;2.30;;
21266;SDS011;10791;53.108;18.326;2022-08-21T13:25:26;3.55;;;2.55;;
21266;SDS011;10791;53.108;18.326;2022-08-21T13:30:33;3.97;;;2.30;;
21266;SDS011;10791;53.108;18.326;2022-08-21T13:35:45;4.70;;;2.40;;
21266;SDS011;10791;53.108;18.326;2022-08-21T13:41:02;4.95;;;2.08;;
21266;SDS011;10791;53.108;18.326;2022-08-21T13:46:12;3.75;;;2.28;;
21266;SDS011;10791;53.108;18.326;2022-08-21T13:51:17;4.07;;;2.28;;
21266;SDS011;10791;53.108;18.326;2022-08-21T13:56:25;2.72;;;2.08;;
21266;SDS011;10791;53.108;18.326;2022-08-21T14:01:36;3.38;;;2.08;;
21266;SDS011;10791;53.108;18.326;2022-08-21T14:06:42;2.67;;;2.03;;
21266;SDS011;10791;53.108;18.326;2022-08-21T14:11:46;3.20;;;1.95;;
21266;SDS011;10791;53.108;18.326;2022-08-21T14:16:53;2.92;;;2.38;;
21266;SDS011;10791;53.108;18.326;2022-08-21T14:28:24;3.45;;;1.95;;
21266;SDS011;10791;53.108;18.326;2022-08-21T14:33:28;3.67;;;2.20;;
21266;SDS011;10791;53.108;18.326;2022-08-21T14:38:35;4.03;;;2.13;;
21266;SDS011;10791;53.108;18.326;2022-08-21T14:43:42;3.47;;;2.35;;
21266;SDS011;10791;53.108;18.326;2022-08-21T14:48:46;4.13;;;2.38;;
21266;SDS011;10791;53.108;18.326;2022-08-21T14:53:50;4.05;;;2.17;;
21266;SDS011;10791;53.108;18.326;2022-08-21T14:58:55;4.95;;;2.13;;
21266;SDS011;10791;53.108;18.326;2022-08-21T15:04:04;5.03;;;2.30;;
21266;SDS011;10791;53.108;18.326;2022-08-21T15:09:07;6.05;;;2.28;;
21266;SDS011;10791;53.108;18.326;2022-08-21T15:14:13;3.53;;;2.40;;
21266;SDS011;10791;53.108;18.326;2022-08-21T15:24:54;4.43;;;1.88;;
21266;SDS011;10791;53.108;18.326;2022-08-21T15:29:59;2.92;;;2.17;;
21266;SDS011;10791;53.108;18.326;2022-08-21T15:35:03;3.03;;;2.03;;
21266;SDS011;10791;53.108;18.326;2022-08-21T15:40:07;3.22;;;1.95;;
21266;SDS011;10791;53.108;18.326;2022-08-21T15:45:11;3.20;;;1.92;;
21266;SDS011;10791;53.108;18.326;2022-08-21T15:50:15;3.97;;;2.05;;
21266;SDS011;10791;53.108;18.326;2022-08-21T15:55:18;3.42;;;2.10;;
21266;SDS011;10791;53.108;18.326;2022-08-21T16:00:23;4.47;;;2.10;;
21266;SDS011;10791;53.108;18.326;2022-08-21T16:05:26;3.40;;;1.90;;
21266;SDS011;10791;53.108;18.326;2022-08-21T16:10:30;4.00;;;1.80;;
21266;SDS011;10791;53.108;18.326;2022-08-21T16:15:34;2.92;;;2.00;;
21266;SDS011;10791;53.108;18.326;2022-08-21T16:20:37;3.10;;;1.98;;
21266;SDS011;10791;53.108;18.326;2022-08-21T16:25:40;3.55;;;2.00;;
21266;SDS011;10791;53.108;18.326;2022-08-21T16:30:46;3.65;;;1.88;;
21266;SDS011;10791;53.108;18.326;2022-08-21T16:35:52;4.63;;;2.25;;
21266;SDS011;10791;53.108;18.326;2022-08-21T16:41:05;3.30;;;2.22;;
21266;SDS011;10791;53.108;18.326;2022-08-21T16:46:21;3.92;;;2.60;;
21266;SDS011;10791;53.108;18.326;2022-08-21T16:51:25;3.95;;;2.75;;
21266;SDS011;10791;53.108;18.326;2022-08-21T16:56:47;3.85;;;2.50;;
21266;SDS011;10791;53.108;18.326;2022-08-21T17:02:26;5.63;;;2.65;;
21266;SDS011;10791;53.108;18.326;2022-08-21T17:07:51;2.70;;;2.00;;
21266;SDS011;10791;53.108;18.326;2022-08-21T17:24:19;5.30;;;2.65;;
21266;SDS011;10791;53.108;18.326;2022-08-21T17:29:44;5.57;;;2.83;;
21266;SDS011;10791;53.108;18.326;2022-08-21T17:35:06;4.20;;;2.80;;
21266;SDS011;10791;53.108;18.326;2022-08-21T17:41:03;6.30;;;3.00;;
21266;SDS011;10791;53.108;18.326;2022-08-21T17:46:43;3.58;;;2.42;;
21266;SDS011;10791;53.108;18.326;2022-08-21T17:51:47;6.50;;;2.50;;
21266;SDS011;10791;53.108;18.326;2022-08-21T17:57:05;4.88;;;2.92;;
21266;SDS011;10791;53.108;18.326;2022-08-21T18:23:28;11.85;;;3.88;;
21266;SDS011;10791;53.108;18.326;2022-08-21T18:28:46;5.85;;;2.85;;
21266;SDS011;10791;53.108;18.326;2022-08-21T18:35:20;5.00;;;3.20;;
21266;SDS011;10791;53.108;18.326;2022-08-21T18:41:03;5.78;;;3.30;;
21266;SDS011;10791;53.108;18.326;2022-08-21T18:46:50;4.20;;;2.78;;
21266;SDS011;10791;53.108;18.326;2022-08-21T18:58:42;5.68;;;2.70;;
21266;SDS011;10791;53.108;18.326;2022-08-21T19:03:48;7.45;;;3.42;;
21266;SDS011;10791;53.108;18.326;2022-08-21T19:09:05;6.97;;;4.13;;
21266;SDS011;10791;53.108;18.326;2022-08-21T19:14:14;10.10;;;4.10;;
21266;SDS011;10791;53.108;18.326;2022-08-21T19:19:23;8.32;;;4.43;;
21266;SDS011;10791;53.108;18.326;2022-08-21T19:24:34;9.57;;;4.20;;
21266;SDS011;10791;53.108;18.326;2022-08-21T19:30:00;8.77;;;4.45;;
21266;SDS011;10791;53.108;18.326;2022-08-21T19:35:05;11.32;;;4.70;;
21266;SDS011;10791;53.108;18.326;2022-08-21T19:40:10;11.75;;;4.90;;
21266;SDS011;10791;53.108;18.326;2022-08-21T19:45:16;10.73;;;4.88;;
21266;SDS011;10791;53.108;18.326;2022-08-21T19:50:22;7.72;;;4.80;;
21266;SDS011;10791;53.108;18.326;2022-08-21T19:55:29;7.15;;;4.28;;
21266;SDS011;10791;53.108;18.326;2022-08-21T20:00:34;7.70;;;4.68;;
21266;SDS011;10791;53.108;18.326;2022-08-21T20:05:45;11.52;;;5.57;;
21266;SDS011;10791;53.108;18.326;2022-08-21T20:10:49;8.18;;;4.65;;
21266;SDS011;10791;53.108;18.326;2022-08-21T20:15:53;8.98;;;4.72;;
21266;SDS011;10791;53.108;18.326;2022-08-21T20:20:57;8.63;;;5.63;;
21266;SDS011;10791;53.108;18.326;2022-08-21T20:26:01;13.25;;;6.72;;
21266;SDS011;10791;53.108;18.326;2022-08-21T20:31:07;8.15;;;4.78;;
21266;SDS011;10791;53.108;18.326;2022-08-21T20:36:10;8.20;;;5.18;;
21266;SDS011;10791;53.108;18.326;2022-08-21T20:41:14;6.40;;;3.78;;
21266;SDS011;10791;53.108;18.326;2022-08-21T20:46:38;5.88;;;3.22;;
21266;SDS011;10791;53.108;18.326;2022-08-21T20:51:49;5.93;;;3.97;;
21266;SDS011;10791;53.108;18.326;2022-08-21T21:07:52;6.93;;;3.60;;
21266;SDS011;10791;53.108;18.326;2022-08-21T21:14:04;5.63;;;3.30;;
21266;SDS011;10791;53.108;18.326;2022-08-21T21:19:48;5.90;;;3.60;;
21266;SDS011;10791;53.108;18.326;2022-08-21T21:30:09;6.50;;;3.67;;
